createdAt,value
2023-05-19T00:01:49.785Z,48.76
2023-05-19T00:04:16.544Z,48.84
2023-05-19T00:06:44.712Z,49.06
2023-05-19T00:09:12.250Z,48.95
2023-05-19T00:11:39.957Z,48.94
2023-05-19T00:14:09.318Z,49.39
2023-05-19T00:16:40.527Z,49.30
2023-05-19T00:19:11.987Z,49.39
2023-05-19T00:21:38.917Z,49.45
2023-05-19T00:24:06.264Z,49.72
2023-05-19T00:26:32.829Z,49.71
2023-05-19T00:29:03.741Z,49.77
2023-05-19T00:31:31.574Z,50.03
2023-05-19T00:33:58.079Z,49.97
2023-05-19T00:36:25.713Z,50.08
2023-05-19T00:38:52.207Z,50.15
2023-05-19T00:41:18.805Z,50.35
2023-05-19T00:43:45.615Z,50.34
2023-05-19T00:46:12.115Z,50.43
2023-05-19T00:48:38.583Z,50.53
2023-05-19T00:51:06.372Z,50.53
2023-05-19T00:53:34.510Z,50.62
2023-05-19T00:56:02.512Z,50.79
2023-05-19T00:58:30.794Z,50.95
2023-05-19T01:01:07.281Z,50.93
2023-05-19T01:03:35.934Z,50.87
2023-05-19T01:06:05.846Z,51.13
2023-05-19T01:08:33.367Z,51.20
2023-05-19T01:11:00.231Z,51.12
2023-05-19T01:13:30.647Z,51.02
2023-05-19T01:16:06.972Z,51.26
2023-05-19T01:18:39.819Z,51.38
2023-05-19T01:21:26.098Z,51.32
2023-05-19T01:24:07.040Z,51.32
2023-05-19T01:27:03.651Z,51.43
2023-05-19T01:29:42.594Z,51.69
2023-05-19T01:32:11.902Z,51.64
2023-05-19T01:34:42.573Z,51.36
2023-05-19T01:37:09.828Z,51.60
2023-05-19T01:39:37.190Z,51.90
2023-05-19T01:42:04.652Z,52.04
2023-05-19T01:44:32.661Z,52.05
2023-05-19T01:46:59.942Z,52.20
2023-05-19T01:49:26.397Z,52.41
2023-05-19T01:51:54.085Z,52.46
2023-05-19T01:54:22.020Z,52.55
2023-05-19T01:57:15.826Z,52.57
2023-05-19T02:00:07.767Z,52.67
2023-05-19T02:02:59.724Z,52.79
2023-05-19T02:05:30.942Z,52.72
2023-05-19T02:08:06.076Z,53.01
2023-05-19T02:10:36.728Z,52.88
2023-05-19T02:13:06.794Z,52.77
2023-05-19T02:15:42.524Z,52.99
2023-05-19T02:18:12.342Z,53.34
2023-05-19T02:20:39.984Z,53.43
2023-05-19T02:23:06.860Z,53.34
2023-05-19T02:25:33.404Z,53.36
2023-05-19T02:28:00.248Z,53.59
2023-05-19T02:30:31.691Z,53.67
2023-05-19T02:33:00.480Z,53.48
2023-05-19T02:35:27.873Z,53.54
2023-05-19T02:37:54.300Z,53.69
2023-05-19T02:40:21.420Z,53.71
2023-05-19T02:42:47.842Z,53.79
2023-05-19T02:45:14.674Z,54.07
2023-05-19T02:47:41.535Z,53.95
2023-05-19T02:50:08.713Z,53.91
2023-05-19T02:52:35.279Z,54.36
2023-05-19T02:55:01.779Z,54.49
2023-05-19T02:57:31.517Z,54.06
2023-05-19T02:59:57.994Z,54.26
2023-05-19T03:02:24.401Z,54.33
2023-05-19T03:04:51.507Z,54.54
2023-05-19T03:07:17.913Z,54.63
2023-05-19T03:09:44.334Z,54.57
2023-05-19T03:12:10.871Z,54.96
2023-05-19T03:14:38.493Z,55.06
2023-05-19T03:17:07.662Z,55.02
2023-05-19T03:19:34.333Z,54.97
2023-05-19T03:22:00.920Z,55.33
2023-05-19T03:24:27.465Z,55.23
2023-05-19T03:26:54.786Z,55.50
2023-05-19T03:29:21.722Z,55.49
2023-05-19T03:31:48.416Z,55.54
2023-05-19T03:34:16.236Z,55.49
2023-05-19T03:36:43.038Z,55.50
2023-05-19T03:39:14.380Z,55.67
2023-05-19T03:41:40.797Z,56.09
2023-05-19T03:44:07.245Z,56.15
2023-05-19T03:46:33.748Z,55.99
2023-05-19T03:49:28.375Z,56.17
2023-05-19T03:51:58.042Z,56.08
2023-05-19T03:54:32.187Z,56.29
2023-05-19T03:56:58.666Z,56.12
2023-05-19T03:59:25.151Z,56.39
2023-05-19T04:01:52.678Z,56.34
2023-05-19T04:04:19.211Z,56.40
2023-05-19T04:06:45.673Z,56.61
2023-05-19T04:09:13.740Z,56.79
2023-05-19T04:11:40.874Z,56.82
2023-05-19T04:14:08.358Z,56.76
2023-05-19T04:16:35.868Z,56.72
2023-05-19T04:19:02.570Z,56.59
2023-05-19T04:21:29.065Z,56.97
2023-05-19T04:23:55.643Z,56.82
2023-05-19T04:26:22.625Z,56.57
2023-05-19T04:28:49.729Z,56.45
2023-05-19T04:31:16.979Z,56.35
2023-05-19T04:33:43.556Z,56.30
2023-05-19T04:36:11.382Z,56.73
2023-05-19T04:38:40.310Z,56.28
2023-05-19T04:41:12.093Z,56.61
2023-05-19T04:43:41.853Z,56.27
2023-05-19T04:46:13.182Z,56.81
2023-05-19T04:48:41.034Z,56.75
2023-05-19T04:51:07.495Z,56.48
2023-05-19T04:53:34.209Z,55.95
2023-05-19T04:56:02.031Z,56.46
2023-05-19T04:58:30.402Z,56.14
2023-05-19T05:00:58.482Z,56.22
2023-05-19T05:03:26.095Z,56.07
2023-05-19T05:05:52.796Z,56.00
2023-05-19T05:08:23.293Z,56.02
2023-05-19T05:10:52.437Z,56.02
2023-05-19T05:13:22.274Z,55.58
2023-05-19T05:15:49.485Z,55.51
2023-05-19T05:18:16.232Z,55.16
2023-05-19T05:20:43.460Z,55.34
2023-05-19T05:23:14.502Z,55.23
2023-05-19T05:25:44.402Z,55.26
2023-05-19T05:28:11.473Z,55.07
2023-05-19T05:30:38.055Z,54.88
2023-05-19T05:33:06.562Z,54.65
2023-05-19T05:35:36.595Z,55.00
2023-05-19T05:38:04.187Z,54.43
2023-05-19T05:40:30.948Z,54.21
2023-05-19T05:42:58.927Z,54.89
2023-05-19T05:45:28.545Z,53.46
2023-05-19T05:47:55.589Z,53.01
2023-05-19T05:50:23.193Z,53.45
2023-05-19T05:52:50.893Z,53.56
2023-05-19T05:55:18.365Z,53.37
2023-05-19T05:57:45.059Z,53.04
2023-05-19T06:00:17.967Z,53.07
2023-05-19T06:02:51.719Z,52.92
2023-05-19T06:05:19.780Z,52.20
2023-05-19T06:07:48.051Z,51.32
2023-05-19T06:10:19.656Z,51.06
2023-05-19T06:12:47.044Z,51.13
2023-05-19T06:15:13.725Z,51.20
2023-05-19T06:17:42.835Z,50.82
2023-05-19T06:20:10.089Z,50.29
2023-05-19T06:22:37.110Z,50.77
2023-05-19T06:25:05.734Z,49.90
2023-05-19T06:27:34.755Z,50.29
2023-05-19T06:30:02.300Z,50.28
2023-05-19T06:32:32.651Z,49.67
2023-05-19T06:35:00.187Z,49.73
2023-05-19T06:37:26.746Z,48.51
2023-05-19T06:39:53.759Z,48.38
2023-05-19T06:42:22.530Z,48.87
2023-05-19T06:44:56.728Z,48.98
2023-05-19T06:47:23.372Z,49.02
2023-05-19T06:49:54.817Z,49.11
2023-05-19T06:52:24.433Z,48.08
2023-05-19T06:54:51.016Z,47.82
2023-05-19T06:57:17.631Z,47.56
2023-05-19T06:59:46.546Z,47.13
2023-05-19T07:02:13.878Z,46.36
2023-05-19T07:04:40.981Z,47.17
2023-05-19T07:07:07.688Z,46.51
2023-05-19T07:09:34.736Z,46.35
2023-05-19T07:12:02.482Z,45.75
2023-05-19T07:14:29.740Z,46.43
2023-05-19T07:16:56.411Z,46.66
2023-05-19T07:19:24.112Z,46.59
2023-05-19T07:21:51.433Z,46.03
2023-05-19T07:24:17.957Z,45.74
2023-05-19T07:26:45.120Z,45.94
2023-05-19T07:29:11.548Z,45.69
2023-05-19T07:31:38.021Z,44.40
2023-05-19T07:34:04.544Z,45.13
2023-05-19T07:36:31.271Z,44.52
2023-05-19T07:38:57.891Z,44.97
2023-05-19T07:41:24.334Z,44.65
2023-05-19T07:43:50.775Z,43.81
2023-05-19T07:46:17.385Z,43.92
2023-05-19T07:48:44.137Z,44.38
2023-05-19T07:51:12.595Z,44.71
2023-05-19T07:53:39.266Z,44.21
2023-05-19T07:56:05.817Z,44.13
2023-05-19T07:58:32.272Z,44.22
2023-05-19T08:00:59.313Z,44.04
2023-05-19T08:03:26.843Z,43.88
2023-05-19T08:05:53.428Z,43.29
2023-05-19T08:08:19.939Z,43.25
2023-05-19T08:10:46.486Z,42.62
2023-05-19T08:13:12.949Z,42.95
2023-05-19T08:15:39.611Z,42.11
2023-05-19T08:18:06.235Z,42.59
2023-05-19T08:20:34.084Z,43.11
2023-05-19T08:23:00.776Z,42.37
2023-05-19T08:25:27.467Z,41.45
2023-05-19T08:27:53.982Z,43.08
2023-05-19T08:30:20.494Z,41.21
2023-05-19T08:32:47.368Z,40.64
2023-05-19T08:35:13.976Z,40.06
2023-05-19T08:37:40.909Z,40.63
2023-05-19T08:40:08.873Z,40.31
2023-05-19T08:42:35.490Z,40.06
2023-05-19T08:45:02.453Z,41.06
2023-05-19T08:47:29.593Z,40.11
2023-05-19T08:50:05.183Z,40.52
2023-05-19T08:52:53.510Z,41.63
2023-05-19T08:55:29.005Z,39.92
2023-05-19T08:57:56.254Z,39.07
2023-05-19T09:00:23.318Z,41.20
2023-05-19T09:03:00.197Z,39.99
2023-05-19T09:05:33.253Z,39.50
2023-05-19T09:08:02.632Z,39.14
2023-05-19T09:10:29.431Z,37.34
2023-05-19T09:12:56.220Z,36.59
2023-05-19T09:15:27.016Z,37.70
2023-05-19T09:18:06.925Z,37.09
2023-05-19T09:20:37.970Z,37.77
2023-05-19T09:23:05.557Z,36.95
2023-05-19T09:25:32.211Z,36.80
2023-05-19T09:27:58.836Z,36.67
2023-05-19T09:30:25.961Z,37.45
2023-05-19T09:32:52.494Z,36.78
2023-05-19T09:35:20.566Z,37.28
2023-05-19T09:37:47.033Z,36.87
2023-05-19T09:40:14.992Z,37.43
2023-05-19T09:42:41.972Z,36.63
2023-05-19T09:45:09.379Z,36.72
2023-05-19T09:47:38.151Z,36.13
2023-05-19T09:50:08.822Z,37.34
2023-05-19T09:52:39.175Z,36.65
2023-05-19T09:55:09.106Z,36.53
2023-05-19T09:57:37.274Z,37.45
2023-05-19T10:00:18.021Z,36.64
2023-05-19T10:02:46.516Z,36.98
2023-05-19T10:05:17.329Z,35.70
2023-05-19T10:07:45.726Z,36.26
2023-05-19T10:10:13.896Z,37.00
2023-05-19T10:12:41.024Z,35.68
2023-05-19T10:15:10.516Z,36.81
2023-05-19T10:17:41.313Z,38.60
2023-05-19T10:20:17.330Z,37.30
2023-05-19T10:22:45.999Z,36.13
2023-05-19T10:25:15.070Z,35.77
2023-05-19T10:27:48.600Z,37.07
2023-05-19T10:30:20.272Z,35.97
2023-05-19T10:32:48.595Z,37.82
2023-05-19T10:35:26.912Z,36.40
2023-05-19T10:37:59.210Z,36.11
2023-05-19T10:40:53.755Z,36.43
2023-05-19T10:43:44.643Z,36.84
2023-05-19T10:46:11.324Z,36.74
2023-05-19T10:48:37.758Z,38.11
2023-05-19T10:51:04.921Z,37.07
2023-05-19T10:53:32.868Z,36.16
2023-05-19T10:56:06.638Z,36.17
2023-05-19T10:58:36.809Z,37.14
2023-05-19T11:01:07.989Z,36.09
2023-05-19T11:03:45.862Z,36.69
2023-05-19T11:06:24.794Z,37.71
2023-05-19T11:08:56.779Z,34.74
2023-05-19T11:11:23.622Z,34.75
2023-05-19T11:13:56.620Z,36.92
2023-05-19T11:16:31.208Z,35.16
2023-05-19T11:19:01.676Z,35.57
2023-05-19T11:21:55.143Z,35.07
2023-05-19T11:24:37.330Z,34.96
2023-05-19T11:27:37.314Z,34.90
2023-05-19T11:30:15.804Z,35.28
2023-05-19T11:32:43.939Z,35.02
2023-05-19T11:35:10.976Z,33.26
2023-05-19T11:37:37.467Z,34.03
2023-05-19T11:40:07.930Z,33.54
2023-05-19T11:42:36.034Z,33.33
2023-05-19T11:45:03.199Z,34.14
2023-05-19T11:47:38.771Z,34.14
2023-05-19T11:50:13.868Z,33.09
2023-05-19T11:52:44.939Z,33.24
2023-05-19T11:55:16.024Z,34.11
2023-05-19T11:58:03.001Z,34.70
2023-05-19T12:00:37.580Z,33.77
2023-05-19T12:03:04.500Z,33.35
2023-05-19T12:05:34.450Z,33.64
2023-05-19T12:08:02.773Z,33.69
2023-05-19T12:10:33.721Z,34.24
2023-05-19T12:13:00.729Z,33.81
2023-05-19T12:15:27.227Z,33.67
2023-05-19T12:17:58.894Z,33.98
2023-05-19T12:20:27.107Z,33.99
2023-05-19T12:22:56.202Z,33.93
2023-05-19T12:25:23.858Z,32.63
2023-05-19T12:27:52.666Z,32.71
2023-05-19T12:30:26.167Z,33.12
2023-05-19T12:32:53.848Z,33.77
2023-05-19T12:35:20.641Z,33.78
2023-05-19T12:37:49.092Z,34.09
2023-05-19T12:40:16.810Z,34.73
2023-05-19T12:42:48.492Z,33.96
2023-05-19T12:45:15.232Z,34.25
2023-05-19T12:47:41.767Z,33.84
2023-05-19T12:50:09.699Z,33.61
2023-05-19T12:52:43.711Z,33.61
2023-05-19T12:55:11.755Z,34.45
2023-05-19T12:57:40.000Z,33.79
2023-05-19T13:00:12.879Z,33.80
2023-05-19T13:02:55.186Z,33.47
2023-05-19T13:05:22.631Z,33.56
2023-05-19T13:07:59.344Z,33.44
2023-05-19T13:10:29.484Z,33.10
2023-05-19T13:12:56.877Z,32.58
2023-05-19T13:15:26.149Z,32.97
2023-05-19T13:17:53.602Z,33.85
2023-05-19T13:20:21.535Z,32.45
2023-05-19T13:22:48.719Z,32.88
2023-05-19T13:25:15.367Z,32.24
2023-05-19T13:27:41.836Z,32.28
2023-05-19T13:30:08.833Z,32.80
2023-05-19T13:32:35.332Z,33.76
2023-05-19T13:35:02.157Z,33.28
2023-05-19T13:37:28.763Z,33.72
2023-05-19T13:39:55.815Z,33.35
2023-05-19T13:42:22.253Z,32.32
2023-05-19T13:44:48.788Z,32.72
2023-05-19T13:47:15.362Z,33.74
2023-05-19T13:49:41.801Z,34.47
2023-05-19T13:52:08.352Z,34.05
2023-05-19T13:54:34.916Z,32.66
2023-05-19T13:57:01.509Z,32.27
2023-05-19T13:59:28.299Z,32.95
2023-05-19T14:01:54.886Z,33.15
2023-05-19T14:04:21.476Z,32.34
2023-05-19T14:06:47.936Z,32.97
2023-05-19T14:09:14.910Z,32.77
2023-05-19T14:11:41.426Z,32.59
2023-05-19T14:14:09.311Z,34.11
2023-05-19T14:16:38.371Z,33.24
2023-05-19T14:19:05.382Z,33.31
2023-05-19T14:21:32.536Z,33.96
2023-05-19T14:23:59.430Z,33.29
2023-05-19T14:26:27.495Z,33.46
2023-05-19T14:28:56.967Z,33.36
2023-05-19T14:31:23.636Z,32.37
2023-05-19T14:33:51.171Z,32.47
2023-05-19T14:36:17.996Z,32.29
2023-05-19T14:38:44.514Z,32.52
2023-05-19T14:41:10.944Z,32.73
2023-05-19T14:43:37.368Z,32.96
2023-05-19T14:46:03.870Z,31.76
2023-05-19T14:48:30.271Z,32.53
2023-05-19T14:50:56.691Z,31.96
2023-05-19T14:53:23.433Z,31.27
2023-05-19T14:55:50.173Z,32.54
2023-05-19T14:58:27.686Z,33.02
2023-05-19T15:00:57.810Z,32.02
2023-05-19T15:03:24.762Z,32.30
2023-05-19T15:05:51.242Z,32.66
2023-05-19T15:08:17.685Z,32.73
2023-05-19T15:10:48.596Z,32.72
2023-05-19T15:13:15.325Z,32.68
2023-05-19T15:15:41.768Z,32.48
2023-05-19T15:18:08.260Z,32.45
2023-05-19T15:20:34.869Z,32.33
2023-05-19T15:23:01.566Z,32.27
2023-05-19T15:25:28.014Z,32.44
2023-05-19T15:27:54.470Z,32.49
2023-05-19T15:30:20.922Z,32.74
2023-05-19T15:32:47.373Z,32.49
2023-05-19T15:35:14.085Z,32.94
2023-05-19T15:37:40.565Z,33.08
2023-05-19T15:40:07.596Z,32.82
2023-05-19T15:42:34.017Z,33.22
2023-05-19T15:45:03.053Z,33.15
2023-05-19T15:47:29.599Z,32.45
2023-05-19T15:49:56.062Z,32.11
2023-05-19T15:52:22.618Z,32.25
2023-05-19T15:54:49.025Z,32.36
2023-05-19T15:57:15.507Z,32.15
2023-05-19T15:59:42.002Z,32.13
2023-05-19T16:02:08.645Z,32.56
2023-05-19T16:04:35.210Z,32.63
2023-05-19T16:07:01.623Z,32.57
2023-05-19T16:09:28.112Z,32.90
2023-05-19T16:11:54.601Z,31.96
2023-05-19T16:14:21.029Z,31.68
2023-05-19T16:16:47.575Z,31.83
2023-05-19T16:19:14.126Z,32.39
2023-05-19T16:21:40.609Z,32.43
2023-05-19T16:24:07.096Z,32.89
2023-05-19T16:26:34.317Z,32.69
2023-05-19T16:29:00.830Z,32.54
2023-05-19T16:31:27.395Z,32.91
2023-05-19T16:33:53.844Z,32.25
2023-05-19T16:36:22.596Z,32.04
2023-05-19T16:38:49.208Z,32.14
2023-05-19T16:41:15.649Z,32.07
2023-05-19T16:43:42.099Z,32.04
2023-05-19T16:46:09.836Z,32.60
2023-05-19T16:48:36.581Z,32.21
2023-05-19T16:51:03.288Z,31.86
2023-05-19T16:53:29.727Z,31.68
2023-05-19T16:55:56.396Z,31.85
2023-05-19T16:58:22.809Z,32.24
2023-05-19T17:00:51.825Z,32.10
2023-05-19T17:03:18.703Z,31.87
2023-05-19T17:05:45.668Z,32.03
2023-05-19T17:08:12.653Z,32.13
2023-05-19T17:10:39.267Z,31.51
2023-05-19T17:13:05.774Z,31.80
2023-05-19T17:15:33.744Z,31.93
2023-05-19T17:18:00.244Z,32.33
2023-05-19T17:20:26.807Z,32.13
2023-05-19T17:22:53.300Z,32.28
2023-05-19T17:25:19.744Z,32.59
2023-05-19T17:27:46.219Z,33.03
2023-05-19T17:30:13.539Z,32.47
2023-05-19T17:32:40.076Z,32.43
2023-05-19T17:35:07.159Z,32.63
2023-05-19T17:37:33.580Z,32.45
2023-05-19T17:40:00.052Z,32.30
2023-05-19T17:42:26.595Z,32.43
2023-05-19T17:44:53.072Z,32.72
2023-05-19T17:47:19.539Z,32.45
2023-05-19T17:49:46.027Z,32.80
2023-05-19T17:52:12.763Z,32.87
2023-05-19T17:54:39.429Z,32.56
2023-05-19T17:57:10.755Z,32.19
2023-05-19T17:59:37.470Z,32.32
2023-05-19T18:02:04.672Z,32.37
2023-05-19T18:04:31.646Z,32.60
2023-05-19T18:06:59.361Z,32.66
2023-05-19T18:09:28.747Z,32.83
2023-05-19T18:11:56.854Z,33.04
2023-05-19T18:14:23.343Z,33.14
2023-05-19T18:16:49.980Z,32.98
2023-05-19T18:19:16.558Z,33.11
2023-05-19T18:21:43.021Z,33.22
2023-05-19T18:24:09.458Z,33.04
2023-05-19T18:26:37.703Z,33.35
2023-05-19T18:29:04.928Z,33.30
2023-05-19T18:31:31.546Z,32.62
2023-05-19T18:33:57.975Z,32.93
2023-05-19T18:36:24.387Z,33.07
2023-05-19T18:38:50.834Z,32.91
2023-05-19T18:41:17.329Z,33.17
2023-05-19T18:43:43.901Z,33.38
2023-05-19T18:46:10.406Z,33.27
2023-05-19T18:48:36.985Z,32.95
2023-05-19T18:51:03.705Z,33.00
2023-05-19T18:53:34.575Z,33.34
2023-05-19T18:56:01.015Z,33.51
2023-05-19T18:58:32.660Z,33.29
2023-05-19T19:00:59.200Z,33.48
2023-05-19T19:03:26.474Z,33.60
2023-05-19T19:05:59.742Z,33.88
2023-05-19T19:08:26.182Z,33.67
2023-05-19T19:10:53.472Z,33.71
2023-05-19T19:13:20.321Z,34.04
2023-05-19T19:15:46.811Z,33.96
2023-05-19T19:18:13.296Z,34.15
2023-05-19T19:20:39.774Z,33.97
2023-05-19T19:23:06.694Z,34.32
2023-05-19T19:25:33.543Z,34.65
2023-05-19T19:28:01.271Z,34.24
2023-05-19T19:30:29.196Z,34.21
2023-05-19T19:32:56.854Z,34.50
2023-05-19T19:35:23.424Z,34.81
2023-05-19T19:37:51.581Z,34.96
2023-05-19T19:40:18.047Z,35.02
2023-05-19T19:42:44.458Z,35.08
2023-05-19T19:45:13.104Z,35.32
2023-05-19T19:47:41.680Z,35.67
2023-05-19T19:50:09.124Z,35.77
2023-05-19T19:52:35.606Z,35.86
2023-05-19T19:55:02.271Z,35.87
2023-05-19T19:57:29.971Z,36.02
2023-05-19T19:59:59.014Z,36.29
2023-05-19T20:02:26.434Z,36.46
2023-05-19T20:04:52.955Z,36.38
2023-05-19T20:07:20.739Z,36.69
2023-05-19T20:09:49.426Z,36.94
2023-05-19T20:12:16.056Z,36.68
2023-05-19T20:14:42.541Z,36.69
2023-05-19T20:17:09.019Z,37.15
2023-05-19T20:19:35.616Z,37.56
2023-05-19T20:22:02.369Z,37.35
2023-05-19T20:24:28.809Z,37.71
2023-05-19T20:26:55.236Z,37.79
2023-05-19T20:29:23.678Z,37.77
2023-05-19T20:31:50.198Z,37.94
2023-05-19T20:34:16.669Z,37.98
2023-05-19T20:36:43.121Z,38.17
2023-05-19T20:39:10.086Z,38.33
2023-05-19T20:41:36.641Z,38.37
2023-05-19T20:44:03.121Z,38.73
2023-05-19T20:46:29.652Z,38.74
2023-05-19T20:48:56.199Z,38.69
2023-05-19T20:51:25.005Z,38.75
2023-05-19T20:53:51.633Z,38.91
2023-05-19T20:56:19.561Z,39.03
2023-05-19T20:58:45.977Z,39.23
2023-05-19T21:01:12.487Z,39.68
2023-05-19T21:03:38.922Z,39.74
2023-05-19T21:06:05.362Z,39.23
2023-05-19T21:08:31.812Z,39.48
2023-05-19T21:10:59.201Z,39.58
2023-05-19T21:13:25.825Z,39.87
2023-05-19T21:15:52.242Z,39.77
2023-05-19T21:18:18.731Z,39.82
2023-05-19T21:20:45.141Z,39.87
2023-05-19T21:23:11.553Z,39.87
2023-05-19T21:25:39.533Z,40.22
2023-05-19T21:28:05.996Z,40.15
2023-05-19T21:30:32.559Z,40.24
2023-05-19T21:32:59.342Z,40.49
2023-05-19T21:35:25.921Z,40.44
2023-05-19T21:37:52.316Z,40.96
2023-05-19T21:40:18.728Z,40.93
2023-05-19T21:42:45.194Z,40.95
2023-05-19T21:45:11.642Z,40.90
2023-05-19T21:47:38.156Z,41.07
2023-05-19T21:50:04.911Z,41.05
2023-05-19T21:52:31.411Z,41.38
2023-05-19T21:54:58.192Z,41.02
2023-05-19T21:57:24.613Z,41.41
2023-05-19T21:59:51.076Z,41.22
2023-05-19T22:02:17.537Z,41.18
2023-05-19T22:04:44.747Z,41.42
2023-05-19T22:07:11.286Z,41.74
2023-05-19T22:09:37.927Z,41.88
2023-05-19T22:12:04.677Z,41.72
2023-05-19T22:14:31.128Z,41.58
2023-05-19T22:16:57.553Z,41.92
2023-05-19T22:19:24.172Z,41.80
2023-05-19T22:21:58.435Z,42.24
2023-05-19T22:24:28.991Z,41.92
2023-05-19T22:26:55.431Z,41.89
2023-05-19T22:29:21.880Z,41.83
2023-05-19T22:31:48.358Z,42.08
2023-05-19T22:34:15.365Z,42.10
2023-05-19T22:36:44.031Z,42.35
2023-05-19T22:39:12.331Z,42.12
2023-05-19T22:41:38.953Z,42.44
2023-05-19T22:44:05.515Z,42.55
2023-05-19T22:46:32.228Z,42.69
2023-05-19T22:48:58.743Z,42.50
2023-05-19T22:51:25.181Z,42.34
2023-05-19T22:53:51.691Z,42.84
2023-05-19T22:56:18.136Z,42.66
2023-05-19T22:58:44.538Z,42.77
2023-05-19T23:01:11.227Z,42.77
2023-05-19T23:03:37.678Z,42.86
2023-05-19T23:06:04.122Z,43.01
2023-05-19T23:08:30.663Z,43.00
2023-05-19T23:11:00.556Z,42.94
2023-05-19T23:13:26.963Z,42.95
2023-05-19T23:15:53.354Z,42.48
2023-05-19T23:18:19.792Z,43.11
2023-05-19T23:20:46.290Z,42.73
2023-05-19T23:23:12.828Z,42.82
2023-05-19T23:25:39.303Z,43.04
2023-05-19T23:28:09.986Z,43.02
2023-05-19T23:30:37.692Z,43.06
2023-05-19T23:33:04.318Z,43.55
2023-05-19T23:35:30.873Z,43.12
2023-05-19T23:37:57.289Z,43.22
2023-05-19T23:40:23.696Z,43.20
2023-05-19T23:42:50.138Z,43.49
2023-05-19T23:45:16.579Z,43.66
2023-05-19T23:47:43.077Z,43.83
2023-05-19T23:50:09.985Z,44.00
2023-05-19T23:52:36.550Z,43.93
2023-05-19T23:55:03.503Z,44.06
2023-05-19T23:57:29.952Z,43.99
2023-05-19T23:59:56.453Z,44.35
